createdAt,value
2016-11-10T00:01:00.974Z,20.74
2016-11-10T00:02:14.635Z,20.77
2016-11-10T00:03:28.129Z,20.7
2016-11-10T00:04:41.663Z,20.67
2016-11-10T00:05:55.289Z,20.66
2016-11-10T00:07:08.967Z,20.69
2016-11-10T00:08:22.506Z,20.74
2016-11-10T00:09:36.155Z,20.7
2016-11-10T00:10:49.757Z,20.64
2016-11-10T00:12:03.359Z,20.62
2016-11-10T00:13:16.976Z,20.54
2016-11-10T00:14:30.590Z,20.51
2016-11-10T00:15:44.245Z,20.39
2016-11-10T00:16:57.537Z,20.47
2016-11-10T00:18:42.238Z,20.39
2016-11-10T00:19:55.792Z,20.36
2016-11-10T00:21:09.570Z,20.41
2016-11-10T00:22:23.356Z,20.36
2016-11-10T00:23:37.057Z,20.35
2016-11-10T00:24:50.705Z,20.35
2016-11-10T00:26:04.432Z,20.33
2016-11-10T00:27:18.009Z,20.31
2016-11-10T00:28:31.687Z,20.32
2016-11-10T00:29:45.256Z,20.24
2016-11-10T00:30:58.867Z,20.2
2016-11-10T00:32:12.421Z,20.2
2016-11-10T00:33:26.049Z,20.17
2016-11-10T00:34:39.713Z,20.16
2016-11-10T00:35:53.641Z,20.2
2016-11-10T00:37:06.972Z,20.02
2016-11-10T00:38:20.588Z,20.06
2016-11-10T00:39:34.183Z,20.13
2016-11-10T00:40:47.576Z,20.05
2016-11-10T00:42:01.144Z,20.03
2016-11-10T00:43:14.211Z,20.06
2016-11-10T00:44:27.847Z,20.01
2016-11-10T00:45:41.465Z,20.02
2016-11-10T00:46:55.083Z,19.91
2016-11-10T00:48:08.734Z,19.94
2016-11-10T00:49:22.328Z,19.99
2016-11-10T00:50:35.867Z,20.06
2016-11-10T00:51:49.471Z,20.03
2016-11-10T00:53:03.051Z,19.99
2016-11-10T00:54:16.797Z,19.95
2016-11-10T00:55:30.396Z,19.87
2016-11-10T00:56:43.999Z,19.96
2016-11-10T00:57:57.071Z,20.08
2016-11-10T00:59:10.695Z,19.96
2016-11-10T01:00:24.328Z,19.94
2016-11-10T01:01:37.603Z,20.01
2016-11-10T01:02:51.190Z,19.94
2016-11-10T01:04:04.841Z,19.92
2016-11-10T01:05:18.579Z,20.03
2016-11-10T01:06:32.288Z,20.1
2016-11-10T01:07:46.002Z,20.01
2016-11-10T01:08:59.649Z,19.91
2016-11-10T01:10:13.185Z,19.94
2016-11-10T01:11:26.806Z,20.01
2016-11-10T01:12:40.429Z,19.96
2016-11-10T01:13:54.114Z,19.88
2016-11-10T01:15:07.804Z,19.87
2016-11-10T01:16:21.422Z,19.66
2016-11-10T01:17:35.015Z,19.78
2016-11-10T01:18:48.584Z,19.87
2016-11-10T01:20:02.237Z,19.94
2016-11-10T01:21:16.485Z,19.88
2016-11-10T01:22:30.151Z,19.88
2016-11-10T01:23:43.781Z,19.92
2016-11-10T01:24:56.785Z,19.91
2016-11-10T01:26:10.379Z,19.95
2016-11-10T01:27:23.984Z,19.92
2016-11-10T01:28:37.580Z,19.91
2016-11-10T01:29:51.191Z,19.87
2016-11-10T01:31:04.290Z,19.92
2016-11-10T01:32:17.912Z,19.78
2016-11-10T01:33:31.521Z,19.86
2016-11-10T01:34:45.136Z,19.84
2016-11-10T01:36:29.812Z,19.99
2016-11-10T01:37:43.467Z,20.03
2016-11-10T01:38:57.177Z,20.05
2016-11-10T01:40:10.777Z,20.06
2016-11-10T01:41:24.131Z,20.13
2016-11-10T01:42:37.707Z,20.03
2016-11-10T01:43:50.802Z,20.17
2016-11-10T01:45:04.452Z,20.23
2016-11-10T01:46:18.155Z,20.26
2016-11-10T01:47:31.773Z,20.28
2016-11-10T01:48:45.314Z,20.33
2016-11-10T01:49:58.981Z,20.38
2016-11-10T01:51:43.719Z,20.43
2016-11-10T01:52:56.844Z,20.47
2016-11-10T01:54:10.399Z,20.5
2016-11-10T01:55:23.620Z,20.5
2016-11-10T01:56:37.276Z,20.42
2016-11-10T01:57:50.563Z,20.39
2016-11-10T01:59:04.223Z,20.38
2016-11-10T02:00:17.847Z,20.29
2016-11-10T02:01:31.457Z,20.29
2016-11-10T02:02:45.096Z,20.29
2016-11-10T02:03:58.752Z,20.28
2016-11-10T02:05:12.295Z,20.18
2016-11-10T02:06:25.974Z,19.98
2016-11-10T02:07:39.058Z,20.14
2016-11-10T02:08:52.679Z,20.17
2016-11-10T02:10:05.751Z,20.14
2016-11-10T02:11:19.401Z,20.03
2016-11-10T02:12:33.018Z,20.16
2016-11-10T02:13:46.623Z,20.16
2016-11-10T02:15:00.330Z,20.16
2016-11-10T02:16:13.948Z,20.14
2016-11-10T02:17:27.009Z,20.02
2016-11-10T02:18:40.621Z,19.99
2016-11-10T02:19:54.241Z,19.98
2016-11-10T02:21:07.906Z,19.94
2016-11-10T02:22:21.554Z,19.99
2016-11-10T02:23:34.808Z,19.95
2016-11-10T02:24:48.467Z,19.92
2016-11-10T02:26:02.111Z,19.94
2016-11-10T02:27:15.629Z,19.94
2016-11-10T02:28:28.956Z,19.94
2016-11-10T02:29:42.576Z,19.8
2016-11-10T02:30:56.148Z,19.77
2016-11-10T02:32:09.711Z,19.71
2016-11-10T02:33:23.476Z,19.68
2016-11-10T02:34:37.164Z,19.71
2016-11-10T02:35:50.828Z,19.65
2016-11-10T02:37:04.420Z,19.8
2016-11-10T02:38:18.067Z,19.65
2016-11-10T02:39:31.500Z,19.54
2016-11-10T02:40:44.600Z,19.39
2016-11-10T02:42:29.339Z,19.47
2016-11-10T02:43:43.121Z,19.47
2016-11-10T02:44:56.227Z,19.46
2016-11-10T02:46:09.882Z,19.39
2016-11-10T02:47:23.562Z,19.39
2016-11-10T02:48:37.195Z,19.44
2016-11-10T02:49:50.807Z,19.46
2016-11-10T02:51:04.295Z,19.48
2016-11-10T02:52:17.867Z,19.5
2016-11-10T02:53:31.533Z,19.46
2016-11-10T02:54:45.086Z,19.39
2016-11-10T02:55:58.681Z,19.33
2016-11-10T02:57:12.289Z,19.43
2016-11-10T02:58:25.971Z,19.41
2016-11-10T02:59:39.574Z,19.44
2016-11-10T03:00:53.189Z,19.4
2016-11-10T03:02:06.757Z,19.44
2016-11-10T03:03:20.500Z,19.39
2016-11-10T03:04:34.131Z,19.47
2016-11-10T03:05:47.792Z,19.44
2016-11-10T03:07:01.384Z,19.4
2016-11-10T03:08:15.041Z,19.41
2016-11-10T03:09:28.728Z,19.4
2016-11-10T03:10:41.828Z,19.43
2016-11-10T03:11:55.431Z,19.36
2016-11-10T03:13:08.202Z,19.41
2016-11-10T03:14:21.837Z,19.41
2016-11-10T03:15:35.450Z,19.4
2016-11-10T03:16:49.236Z,19.26
2016-11-10T03:18:02.874Z,19.31
2016-11-10T03:19:16.296Z,19.4
2016-11-10T03:20:29.879Z,19.37
2016-11-10T03:21:43.518Z,19.41
2016-11-10T03:22:57.189Z,19.43
2016-11-10T03:24:10.803Z,19.44
2016-11-10T03:25:24.337Z,19.48
2016-11-10T03:26:38.039Z,19.44
2016-11-10T03:27:51.670Z,19.47
2016-11-10T03:29:05.277Z,19.46
2016-11-10T03:30:18.895Z,19.46
2016-11-10T03:31:32.291Z,19.43
2016-11-10T03:32:45.662Z,19.54
2016-11-10T03:33:59.331Z,19.43
2016-11-10T03:35:13.180Z,19.4
2016-11-10T03:36:26.740Z,19.43
2016-11-10T03:37:40.443Z,19.39
2016-11-10T03:38:54.109Z,19.26
2016-11-10T03:40:07.738Z,19.4
2016-11-10T03:41:21.388Z,19.39
2016-11-10T03:42:35.025Z,19.32
2016-11-10T03:43:48.636Z,19.4
2016-11-10T03:45:02.210Z,19.28
2016-11-10T03:46:16.228Z,19.32
2016-11-10T03:47:29.833Z,19.31
2016-11-10T03:48:43.453Z,19.31
2016-11-10T03:50:28.175Z,19.26
2016-11-10T03:51:41.852Z,19.19
2016-11-10T03:52:55.356Z,19.31
2016-11-10T03:54:08.989Z,19.23
2016-11-10T03:55:22.032Z,19.07
2016-11-10T03:56:35.603Z,19.19
2016-11-10T03:57:49.371Z,19.16
2016-11-10T03:59:02.626Z,19.19
2016-11-10T04:00:16.317Z,19.04
2016-11-10T04:01:30.008Z,19.1
2016-11-10T04:02:43.391Z,19.07
2016-11-10T04:03:56.996Z,19.18
2016-11-10T04:05:10.602Z,19.18
2016-11-10T04:06:24.241Z,19.14
2016-11-10T04:07:37.845Z,19.18
2016-11-10T04:08:51.496Z,19.18
2016-11-10T04:10:05.155Z,19.07
2016-11-10T04:11:18.878Z,19.1
2016-11-10T04:12:32.467Z,19.04
2016-11-10T04:13:45.812Z,19
2016-11-10T04:14:59.406Z,18.84
2016-11-10T04:16:13.162Z,18.8
2016-11-10T04:17:40.655Z,18.8
2016-11-10T04:18:54.220Z,18.84
2016-11-10T04:20:07.836Z,18.9
2016-11-10T04:21:21.473Z,18.92
2016-11-10T04:22:35.149Z,18.84
2016-11-10T04:23:48.776Z,18.92
2016-11-10T04:25:02.442Z,18.85
2016-11-10T04:26:16.287Z,18.85
2016-11-10T04:27:29.908Z,18.73
2016-11-10T04:28:43.558Z,18.76
2016-11-10T04:29:57.126Z,18.85
2016-11-10T04:31:10.790Z,18.76
2016-11-10T04:32:24.440Z,18.81
2016-11-10T04:33:38.057Z,18.75
2016-11-10T04:34:51.626Z,18.73
2016-11-10T04:36:05.330Z,18.75
2016-11-10T04:37:18.939Z,18.76
2016-11-10T04:38:32.555Z,18.72
2016-11-10T04:39:46.334Z,18.75
2016-11-10T04:40:59.938Z,18.84
2016-11-10T04:42:13.238Z,18.78
2016-11-10T04:43:26.834Z,18.73
2016-11-10T04:44:40.415Z,18.75
2016-11-10T04:45:53.975Z,18.62
2016-11-10T04:47:07.296Z,18.62
2016-11-10T04:48:20.900Z,18.55
2016-11-10T04:49:34.014Z,18.55
2016-11-10T04:50:47.466Z,18.36
2016-11-10T04:52:00.491Z,18.44
2016-11-10T04:53:13.537Z,18.41
2016-11-10T04:54:26.816Z,18.37
2016-11-10T04:55:39.867Z,18.39
2016-11-10T04:56:53.163Z,18.5
2016-11-10T04:58:05.693Z,18.5
2016-11-10T04:59:18.842Z,18.47
2016-11-10T05:00:32.487Z,18.58
2016-11-10T05:01:46.322Z,18.54
2016-11-10T05:02:59.973Z,18.54
2016-11-10T05:04:13.646Z,18.42
2016-11-10T05:05:27.198Z,18.5
2016-11-10T05:06:40.283Z,18.5
2016-11-10T05:07:53.901Z,18.58
2016-11-10T05:09:07.434Z,18.37
2016-11-10T05:10:21.001Z,18.42
2016-11-10T05:11:34.163Z,18.41
2016-11-10T05:12:47.752Z,18.44
2016-11-10T05:14:01.195Z,18.52
2016-11-10T05:15:14.289Z,18.51
2016-11-10T05:16:27.921Z,18.62
2016-11-10T05:17:41.412Z,18.58
2016-11-10T05:18:54.991Z,18.47
2016-11-10T05:20:08.655Z,18.47
2016-11-10T05:21:22.466Z,18.58
2016-11-10T05:22:36.691Z,18.51
2016-11-10T05:23:50.568Z,18.58
2016-11-10T05:25:03.555Z,18.57
2016-11-10T05:26:17.251Z,18.63
2016-11-10T05:27:30.870Z,18.58
2016-11-10T05:28:44.513Z,18.66
2016-11-10T05:29:58.142Z,18.58
2016-11-10T05:31:11.858Z,18.63
2016-11-10T05:32:25.492Z,18.55
2016-11-10T05:33:38.566Z,18.57
2016-11-10T05:34:52.501Z,18.6
2016-11-10T05:36:06.160Z,18.54
2016-11-10T05:37:19.887Z,18.54
2016-11-10T05:38:33.472Z,18.48
2016-11-10T05:39:47.078Z,18.48
2016-11-10T05:41:00.414Z,18.37
2016-11-10T05:42:14.013Z,18.39
2016-11-10T05:43:27.711Z,18.48
2016-11-10T05:44:41.254Z,18.48
2016-11-10T05:45:54.566Z,18.52
2016-11-10T05:47:07.751Z,18.57
2016-11-10T05:48:21.251Z,18.5
2016-11-10T05:49:34.856Z,18.5
2016-11-10T05:50:48.423Z,18.36
2016-11-10T05:52:01.956Z,18.41
2016-11-10T05:53:15.608Z,18.37
2016-11-10T05:54:29.229Z,18.45
2016-11-10T05:55:42.855Z,18.52
2016-11-10T05:56:56.809Z,18.47
2016-11-10T05:58:10.402Z,18.32
2016-11-10T05:59:24.068Z,18.42
2016-11-10T06:00:37.679Z,18.47
2016-11-10T06:01:51.340Z,18.47
2016-11-10T06:03:05.026Z,18.45
2016-11-10T06:04:18.695Z,18.52
2016-11-10T06:05:32.297Z,18.52
2016-11-10T06:06:45.842Z,18.45
2016-11-10T06:07:59.493Z,18.47
2016-11-10T06:09:13.274Z,18.45
2016-11-10T06:10:57.476Z,18.51
2016-11-10T06:12:11.181Z,18.57
2016-11-10T06:13:24.319Z,18.62
2016-11-10T06:14:37.941Z,18.62
2016-11-10T06:15:51.563Z,18.62
2016-11-10T06:17:04.864Z,18.62
2016-11-10T06:18:18.511Z,18.67
2016-11-10T06:19:32.144Z,18.51
2016-11-10T06:20:45.765Z,18.65
2016-11-10T06:21:59.354Z,18.6
2016-11-10T06:23:13.237Z,18.58
2016-11-10T06:24:26.860Z,18.62
2016-11-10T06:25:40.510Z,18.67
2016-11-10T06:26:53.836Z,18.72
2016-11-10T06:28:07.473Z,18.78
2016-11-10T06:29:21.121Z,18.75
2016-11-10T06:30:34.783Z,18.75
2016-11-10T06:31:48.374Z,18.82
2016-11-10T06:33:01.988Z,18.75
2016-11-10T06:34:15.622Z,18.73
2016-11-10T06:35:29.258Z,18.63
2016-11-10T06:37:14.000Z,18.73
2016-11-10T06:38:27.129Z,18.73
2016-11-10T06:39:40.762Z,18.72
2016-11-10T06:40:54.332Z,18.65
2016-11-10T06:42:07.879Z,18.65
2016-11-10T06:43:21.521Z,18.6
2016-11-10T06:44:35.102Z,18.75
2016-11-10T06:45:48.671Z,18.75
2016-11-10T06:47:33.299Z,18.72
2016-11-10T06:48:46.963Z,18.65
2016-11-10T06:50:00.595Z,18.6
2016-11-10T06:51:14.218Z,18.7
2016-11-10T06:52:27.857Z,18.63
2016-11-10T06:53:40.903Z,18.65
2016-11-10T06:54:54.148Z,18.6
2016-11-10T06:56:07.823Z,18.63
2016-11-10T06:57:21.448Z,18.6
2016-11-10T06:58:35.116Z,18.67
2016-11-10T06:59:48.810Z,18.63
2016-11-10T07:01:02.395Z,18.58
2016-11-10T07:02:16.377Z,18.62
2016-11-10T07:03:29.966Z,18.66
2016-11-10T07:04:43.530Z,18.76
2016-11-10T07:05:57.056Z,18.52
2016-11-10T07:07:10.602Z,18.63
2016-11-10T07:08:24.262Z,18.65
2016-11-10T07:09:37.897Z,18.76
2016-11-10T07:10:51.458Z,18.73
2016-11-10T07:12:05.169Z,18.73
2016-11-10T07:13:18.830Z,18.54
2016-11-10T07:14:32.491Z,18.63
2016-11-10T07:15:46.416Z,18.62
2016-11-10T07:16:59.738Z,18.58
2016-11-10T07:18:13.335Z,18.63
2016-11-10T07:19:27.034Z,18.72
2016-11-10T07:20:40.611Z,18.8
2016-11-10T07:21:54.216Z,18.72
2016-11-10T07:23:07.563Z,18.76
2016-11-10T07:24:21.212Z,18.7
2016-11-10T07:25:34.507Z,18.73
2016-11-10T07:26:48.094Z,18.8
2016-11-10T07:28:01.738Z,18.75
2016-11-10T07:29:15.256Z,18.82
2016-11-10T07:30:28.832Z,18.7
2016-11-10T07:31:42.465Z,18.7
2016-11-10T07:32:55.781Z,18.55
2016-11-10T07:34:09.363Z,18.6
2016-11-10T07:35:23.028Z,18.51
2016-11-10T07:36:36.706Z,18.57
2016-11-10T07:38:09.582Z,18.62
2016-11-10T07:39:23.267Z,18.48
2016-11-10T07:40:36.354Z,18.55
2016-11-10T07:41:49.983Z,18.47
2016-11-10T07:43:03.633Z,18.5
2016-11-10T07:44:17.265Z,18.51
2016-11-10T07:45:30.957Z,18.6
2016-11-10T07:46:44.556Z,18.55
2016-11-10T07:47:58.216Z,18.54
2016-11-10T07:49:11.761Z,18.57
2016-11-10T07:50:25.329Z,18.65
2016-11-10T07:51:38.901Z,18.55
2016-11-10T07:52:52.529Z,18.54
2016-11-10T07:54:06.125Z,18.55
2016-11-10T07:55:19.756Z,18.6
2016-11-10T07:56:32.819Z,18.6
2016-11-10T07:57:46.452Z,18.55
2016-11-10T07:59:00.052Z,18.54
2016-11-10T08:00:13.642Z,18.52
2016-11-10T08:01:27.231Z,18.54
2016-11-10T08:02:40.821Z,18.65
2016-11-10T08:03:54.381Z,18.51
2016-11-10T08:05:08.046Z,18.65
2016-11-10T08:06:21.619Z,18.55
2016-11-10T08:07:35.236Z,18.6
2016-11-10T08:08:48.953Z,18.5
2016-11-10T08:10:02.066Z,18.55
2016-11-10T08:11:15.648Z,18.52
2016-11-10T08:12:29.240Z,18.54
2016-11-10T08:13:42.390Z,18.57
2016-11-10T08:14:56.028Z,18.54
2016-11-10T08:16:09.676Z,18.57
2016-11-10T08:17:23.364Z,18.55
2016-11-10T08:18:37.013Z,18.48
2016-11-10T08:19:50.168Z,18.51
2016-11-10T08:21:03.807Z,18.5
2016-11-10T08:22:17.458Z,18.54
2016-11-10T08:23:31.112Z,18.5
2016-11-10T08:24:44.701Z,18.54
2016-11-10T08:25:58.380Z,18.58
2016-11-10T08:27:12.164Z,18.54
2016-11-10T08:28:25.812Z,18.58
2016-11-10T08:29:39.136Z,18.5
2016-11-10T08:30:52.797Z,18.51
2016-11-10T08:32:05.914Z,18.45
2016-11-10T08:33:19.665Z,18.52
2016-11-10T08:34:33.008Z,18.55
2016-11-10T08:35:46.650Z,18.51
2016-11-10T08:36:59.729Z,18.55
2016-11-10T08:38:13.419Z,18.6
2016-11-10T08:39:27.067Z,18.57
2016-11-10T08:40:40.752Z,18.54
2016-11-10T08:41:53.893Z,18.5
2016-11-10T08:43:07.501Z,18.65
2016-11-10T08:44:21.128Z,18.66
2016-11-10T08:45:34.574Z,18.63
2016-11-10T08:47:19.530Z,18.6
2016-11-10T08:48:33.137Z,18.63
2016-11-10T08:49:46.769Z,18.58
2016-11-10T08:51:00.358Z,18.65
2016-11-10T08:52:13.992Z,18.51
2016-11-10T08:53:27.369Z,18.54
2016-11-10T08:54:41.038Z,18.63
2016-11-10T08:55:54.611Z,18.66
2016-11-10T08:57:08.382Z,18.6
2016-11-10T08:58:22.055Z,18.58
2016-11-10T08:59:35.759Z,18.65
2016-11-10T09:00:49.542Z,18.6
2016-11-10T09:02:03.139Z,18.62
2016-11-10T09:03:16.749Z,18.65
2016-11-10T09:04:30.458Z,18.66
2016-11-10T09:05:43.587Z,18.58
2016-11-10T09:06:57.364Z,18.62
2016-11-10T09:08:10.138Z,18.62
2016-11-10T09:09:23.820Z,18.57
2016-11-10T09:10:37.482Z,18.65
2016-11-10T09:11:51.149Z,18.7
2016-11-10T09:13:04.812Z,18.69
2016-11-10T09:14:18.433Z,18.65
2016-11-10T09:15:32.106Z,18.55
2016-11-10T09:16:45.786Z,18.51
2016-11-10T09:17:59.487Z,18.52
2016-11-10T09:19:13.348Z,18.67
2016-11-10T09:20:27.014Z,18.75
2016-11-10T09:21:40.621Z,18.66
2016-11-10T09:22:54.498Z,18.73
2016-11-10T09:24:08.097Z,18.73
2016-11-10T09:25:21.815Z,18.78
2016-11-10T09:26:35.310Z,18.85
2016-11-10T09:27:49.074Z,18.85
2016-11-10T09:29:02.673Z,18.82
2016-11-10T09:30:16.470Z,18.84
2016-11-10T09:31:30.098Z,18.8
2016-11-10T09:32:43.324Z,18.92
2016-11-10T09:33:56.445Z,18.9
2016-11-10T09:35:09.865Z,19.04
2016-11-10T09:36:23.810Z,18.91
2016-11-10T09:37:37.471Z,18.94
2016-11-10T09:38:51.131Z,18.94
2016-11-10T09:40:04.875Z,18.98
2016-11-10T09:41:18.545Z,18.94
2016-11-10T09:42:32.370Z,18.94
2016-11-10T09:43:46.435Z,19.06
2016-11-10T09:44:59.966Z,19.04
2016-11-10T09:46:13.605Z,19.1
2016-11-10T09:47:27.628Z,19.1
2016-11-10T09:48:41.307Z,19.22
2016-11-10T09:49:54.250Z,19.25
2016-11-10T09:51:07.926Z,19.14
2016-11-10T09:52:21.540Z,19.18
2016-11-10T09:53:34.585Z,19.31
2016-11-10T09:54:47.966Z,19.29
2016-11-10T09:56:01.649Z,19.26
2016-11-10T09:57:15.316Z,19.32
2016-11-10T09:58:28.898Z,19.39
2016-11-10T09:59:42.477Z,19.46
2016-11-10T10:00:56.227Z,19.51
2016-11-10T10:02:10.021Z,19.54
2016-11-10T10:03:23.908Z,19.5
2016-11-10T10:04:37.515Z,19.48
2016-11-10T10:05:51.135Z,19.68
2016-11-10T10:07:04.819Z,19.73
2016-11-10T10:08:18.533Z,19.73
2016-11-10T10:09:32.224Z,19.74
2016-11-10T10:10:45.307Z,19.76
2016-11-10T10:11:58.884Z,19.76
2016-11-10T10:13:12.517Z,19.91
2016-11-10T10:14:26.209Z,19.92
2016-11-10T10:15:39.814Z,19.94
2016-11-10T10:16:53.472Z,19.99
2016-11-10T10:18:07.075Z,20.01
2016-11-10T10:19:20.788Z,20.03
2016-11-10T10:20:33.353Z,20.03
2016-11-10T10:21:46.514Z,20.1
2016-11-10T10:22:59.654Z,20.14
2016-11-10T10:24:13.424Z,20.06
2016-11-10T10:25:26.293Z,20.11
2016-11-10T10:26:39.991Z,20.28
2016-11-10T10:28:23.713Z,20.31
2016-11-10T10:29:36.811Z,20.26
2016-11-10T10:30:50.485Z,20.42
2016-11-10T10:32:04.103Z,20.41
2016-11-10T10:33:17.806Z,20.51
2016-11-10T10:34:31.541Z,20.5
2016-11-10T10:35:45.166Z,20.57
2016-11-10T10:36:58.281Z,20.7
2016-11-10T10:38:11.909Z,20.69
2016-11-10T10:39:25.651Z,20.72
2016-11-10T10:40:39.292Z,20.72
2016-11-10T10:41:52.927Z,20.79
2016-11-10T10:43:06.526Z,20.79
2016-11-10T10:44:20.214Z,20.85
2016-11-10T10:45:33.848Z,20.88
2016-11-10T10:46:47.525Z,20.95
2016-11-10T10:48:01.126Z,20.92
2016-11-10T10:49:14.835Z,21.01
2016-11-10T10:50:28.521Z,20.99
2016-11-10T10:51:42.077Z,20.99
2016-11-10T10:52:55.705Z,21.09
2016-11-10T10:54:09.483Z,21.14
2016-11-10T10:55:23.090Z,21.21
2016-11-10T10:56:36.689Z,21.22
2016-11-10T10:57:49.830Z,21.29
2016-11-10T10:59:03.494Z,21.25
2016-11-10T11:00:17.106Z,21.35
2016-11-10T11:01:30.736Z,21.37
2016-11-10T11:02:44.402Z,21.44
2016-11-10T11:03:58.091Z,21.44
2016-11-10T11:05:11.887Z,21.47
2016-11-10T11:06:24.799Z,21.64
2016-11-10T11:07:38.506Z,21.56
2016-11-10T11:08:52.186Z,21.64
2016-11-10T11:10:05.825Z,21.68
2016-11-10T11:11:19.649Z,21.68
2016-11-10T11:12:33.216Z,21.72
2016-11-10T11:13:46.599Z,21.71
2016-11-10T11:15:00.190Z,21.71
2016-11-10T11:16:13.731Z,21.82
2016-11-10T11:17:27.309Z,21.88
2016-11-10T11:18:40.432Z,21.84
2016-11-10T11:19:54.049Z,21.86
2016-11-10T11:21:07.666Z,21.9
2016-11-10T11:22:20.835Z,21.88
2016-11-10T11:23:34.531Z,21.94
2016-11-10T11:24:48.175Z,21.9
2016-11-10T11:26:01.850Z,21.86
2016-11-10T11:27:15.520Z,21.98
2016-11-10T11:28:29.050Z,22.12
2016-11-10T11:29:42.770Z,22.12
2016-11-10T11:30:56.426Z,22.24
2016-11-10T11:32:10.118Z,22.25
2016-11-10T11:33:23.686Z,22.3
2016-11-10T11:34:37.297Z,22.35
2016-11-10T11:36:21.982Z,22.42
2016-11-10T11:37:35.638Z,22.46
2016-11-10T11:38:49.243Z,22.47
2016-11-10T11:40:02.900Z,22.49
2016-11-10T11:41:16.618Z,22.51
2016-11-10T11:42:30.222Z,22.58
2016-11-10T11:43:43.876Z,22.6
2016-11-10T11:46:42.318Z,22.62
2016-11-10T11:47:56.009Z,22.67
2016-11-10T11:49:09.654Z,22.75
2016-11-10T11:50:23.315Z,22.83
2016-11-10T11:51:36.925Z,22.85
2016-11-10T11:52:50.860Z,22.9
2016-11-10T11:54:04.552Z,23
2016-11-10T11:55:18.181Z,23.09
2016-11-10T11:56:31.928Z,23.17
2016-11-10T11:57:45.589Z,23.17
2016-11-10T11:58:59.117Z,23.16
2016-11-10T12:00:12.719Z,23.32
2016-11-10T12:01:26.403Z,23.35
2016-11-10T12:02:39.976Z,23.43
2016-11-10T12:03:53.900Z,23.43
2016-11-10T12:05:07.581Z,23.43
2016-11-10T12:06:21.277Z,23.51
2016-11-10T12:07:34.916Z,23.69
2016-11-10T12:08:48.578Z,23.72
2016-11-10T12:10:02.207Z,23.76
2016-11-10T12:11:15.786Z,23.68
2016-11-10T12:12:29.289Z,23.8
2016-11-10T12:13:42.996Z,23.8
2016-11-10T12:14:56.595Z,23.98
2016-11-10T12:16:10.224Z,23.98
2016-11-10T12:17:23.969Z,23.94
2016-11-10T12:18:37.691Z,23.98
2016-11-10T12:19:51.335Z,23.97
2016-11-10T12:21:04.943Z,24.06
2016-11-10T12:22:18.613Z,24.09
2016-11-10T12:23:31.769Z,24.09
2016-11-10T12:24:45.463Z,24.13
2016-11-10T12:25:59.108Z,24.22
2016-11-10T12:27:12.785Z,24.24
2016-11-10T12:28:26.391Z,24.4
2016-11-10T12:29:40.073Z,24.35
2016-11-10T12:30:53.900Z,24.45
2016-11-10T12:32:07.539Z,24.52
2016-11-10T12:33:21.248Z,24.57
2016-11-10T12:34:35.094Z,24.6
2016-11-10T12:35:48.704Z,24.67
2016-11-10T12:37:02.345Z,24.68
2016-11-10T12:38:16.040Z,24.85
2016-11-10T12:39:29.388Z,24.78
2016-11-10T12:40:43.015Z,24.78
2016-11-10T12:41:56.615Z,24.88
2016-11-10T12:43:10.373Z,24.85
2016-11-10T12:44:54.555Z,24.96
2016-11-10T12:46:07.653Z,24.99
2016-11-10T12:47:21.282Z,24.91
2016-11-10T12:48:34.931Z,24.93
2016-11-10T12:49:48.687Z,25
2016-11-10T12:51:02.286Z,25.13
2016-11-10T12:52:15.879Z,24.98
2016-11-10T12:53:29.480Z,25.1
2016-11-10T12:55:14.322Z,25.2
2016-11-10T12:56:27.875Z,25.18
2016-11-10T12:57:41.240Z,25.25
2016-11-10T12:58:54.853Z,25.24
2016-11-10T13:00:08.514Z,25.32
2016-11-10T13:01:22.161Z,25.42
2016-11-10T13:02:35.826Z,25.52
2016-11-10T13:03:49.742Z,25.69
2016-11-10T13:05:02.868Z,25.94
2016-11-10T13:06:16.643Z,26.01
2016-11-10T13:07:29.921Z,25.99
2016-11-10T13:08:43.580Z,26.01
2016-11-10T13:09:57.206Z,26.02
2016-11-10T13:11:10.895Z,26.02
2016-11-10T13:12:24.473Z,26.23
2016-11-10T13:13:38.084Z,26.26
2016-11-10T13:14:51.227Z,26.4
2016-11-10T13:16:04.957Z,26.4
2016-11-10T13:17:18.687Z,26.35
2016-11-10T13:18:32.322Z,26.44
2016-11-10T13:19:46.070Z,26.51
2016-11-10T13:20:59.747Z,26.6
2016-11-10T13:22:13.569Z,26.67
2016-11-10T13:23:27.713Z,26.81
2016-11-10T13:24:40.863Z,26.48
2016-11-10T13:25:54.048Z,26.58
2016-11-10T13:27:07.685Z,26.55
2016-11-10T13:28:21.325Z,26.67
2016-11-10T13:29:34.965Z,26.75
2016-11-10T13:30:48.634Z,26.8
2016-11-10T13:32:02.267Z,26.63
2016-11-10T13:33:15.993Z,26.62
2016-11-10T13:34:29.659Z,26.57
2016-11-10T13:35:43.010Z,26.44
2016-11-10T13:36:56.723Z,26.63
2016-11-10T13:38:09.864Z,26.7
2016-11-10T13:39:22.985Z,26.73
2016-11-10T13:40:36.670Z,26.89
2016-11-10T13:41:49.805Z,27.09
2016-11-10T13:43:03.447Z,27.04
2016-11-10T13:44:16.880Z,26.97
2016-11-10T13:45:30.617Z,26.99
2016-11-10T13:46:43.949Z,26.99
2016-11-10T13:47:57.600Z,27.06
2016-11-10T13:49:11.555Z,27
2016-11-10T13:50:25.222Z,26.82
2016-11-10T13:51:38.871Z,26.73
2016-11-10T13:52:52.143Z,26.91
2016-11-10T13:54:05.746Z,27.21
2016-11-10T13:55:19.611Z,27.25
2016-11-10T13:56:33.223Z,27.44
2016-11-10T13:57:46.853Z,27.67
2016-11-10T13:58:59.988Z,27.7
2016-11-10T14:00:13.654Z,27.78
2016-11-10T14:01:27.346Z,27.69
2016-11-10T14:02:41.025Z,27.59
2016-11-10T14:03:54.618Z,27.6
2016-11-10T14:05:08.253Z,27.74
2016-11-10T14:06:21.943Z,27.85
2016-11-10T14:07:35.281Z,27.92
2016-11-10T14:08:48.949Z,27.87
2016-11-10T14:10:02.572Z,28.03
2016-11-10T14:11:16.189Z,27.9
2016-11-10T14:12:29.858Z,27.97
2016-11-10T14:13:43.622Z,28.34
2016-11-10T14:14:57.217Z,28.36
2016-11-10T14:16:10.876Z,28.61
2016-11-10T14:17:24.019Z,28.76
2016-11-10T14:18:37.600Z,28.66
2016-11-10T14:19:51.271Z,28.67
2016-11-10T14:21:04.977Z,28.73
2016-11-10T14:22:18.687Z,29.12
2016-11-10T14:23:32.267Z,29.05
2016-11-10T14:24:45.900Z,28.74
2016-11-10T14:26:30.701Z,28.73
2016-11-10T14:27:44.374Z,28.41
2016-11-10T14:28:57.999Z,27.85
2016-11-10T14:30:11.307Z,28.06
2016-11-10T14:31:24.942Z,28.19
2016-11-10T14:32:38.647Z,28.55
2016-11-10T14:33:52.380Z,28.95
2016-11-10T14:35:06.067Z,28.92
2016-11-10T14:36:19.875Z,28.96
2016-11-10T14:37:33.563Z,28.92
2016-11-10T14:38:47.107Z,29.11
2016-11-10T14:40:00.687Z,28.92
2016-11-10T14:41:14.110Z,29.05
2016-11-10T14:42:27.775Z,29.28
2016-11-10T14:43:41.406Z,29.43
2016-11-10T14:44:55.026Z,29.95
2016-11-10T14:46:08.653Z,30.15
2016-11-10T14:47:22.218Z,30.31
2016-11-10T14:48:35.837Z,30.37
2016-11-10T14:49:49.828Z,30.45
2016-11-10T14:51:03.476Z,30
2016-11-10T14:52:17.119Z,29.87
2016-11-10T14:53:30.647Z,29.37
2016-11-10T14:54:44.425Z,28.76
2016-11-10T14:55:58.049Z,28.61
2016-11-10T14:57:11.151Z,28.89
2016-11-10T14:58:24.807Z,28.81
2016-11-10T14:59:38.425Z,29.31
2016-11-10T15:00:52.051Z,30.02
2016-11-10T15:02:05.230Z,30.32
2016-11-10T15:03:18.615Z,30.57
2016-11-10T15:04:31.955Z,30.67
2016-11-10T15:05:45.528Z,30.64
2016-11-10T15:06:58.625Z,30.64
2016-11-10T15:08:12.244Z,30.47
2016-11-10T15:09:25.416Z,30.67
2016-11-10T15:10:39.092Z,30.94
2016-11-10T15:11:52.802Z,30.97
2016-11-10T15:13:06.467Z,31.29
2016-11-10T15:14:20.149Z,31.28
2016-11-10T15:15:33.268Z,31.63
2016-11-10T15:16:46.865Z,31.44
2016-11-10T15:18:00.503Z,31.66
2016-11-10T15:19:14.141Z,32.15
2016-11-10T15:20:27.792Z,32.3
2016-11-10T15:21:41.409Z,32.63
2016-11-10T15:22:55.109Z,32.56
2016-11-10T15:24:08.797Z,32.89
2016-11-10T15:25:22.162Z,33.12
2016-11-10T15:26:35.781Z,33.22
2016-11-10T15:27:49.672Z,33.06
2016-11-10T15:29:03.349Z,33.29
2016-11-10T15:30:17.279Z,32.85
2016-11-10T15:31:30.963Z,32.92
2016-11-10T15:32:44.658Z,32.7
2016-11-10T15:33:58.546Z,32.11
2016-11-10T15:35:12.157Z,32.3
2016-11-10T15:36:25.764Z,32.08
2016-11-10T15:37:39.493Z,32.13
2016-11-10T15:38:53.155Z,32.19
2016-11-10T15:40:06.869Z,32.47
2016-11-10T15:41:20.590Z,32.37
2016-11-10T15:42:34.248Z,31.95
2016-11-10T15:43:46.618Z,31.38
2016-11-10T15:45:30.807Z,30.95
2016-11-10T15:46:44.445Z,30.65
2016-11-10T15:47:57.568Z,30.82
2016-11-10T15:49:11.195Z,30.67
2016-11-10T15:50:24.924Z,30.64
2016-11-10T15:51:38.486Z,30.42
2016-11-10T15:52:52.184Z,30.16
2016-11-10T15:54:05.815Z,30.73
2016-11-10T15:55:19.782Z,31.12
2016-11-10T15:56:32.884Z,31.66
2016-11-10T15:57:46.684Z,32.4
2016-11-10T15:59:00.349Z,33.35
2016-11-10T16:00:13.803Z,33.31
2016-11-10T16:01:27.531Z,33.23
2016-11-10T16:02:41.081Z,32.99